Bookmark and Share
Track history (hours):
 

Tasman Sea

More information available from US FCC via Universal Licensing System and Coast Guard Vessel Documentation Center.

Last reported at 2014-Apr-17 00:33 UTC. Time now 2014-Apr-17 01:02 UTC.
Position N 40°35' W 073°12'.

Length 38 m; draft 5 m.

Type: Tug. MMSI: 366910960.

NotesDate/timePositionNaut miles runAvg speedWind from/ knotsBaromVisibWave heightAir tempDewpointWater temp
2014-Apr-17 00:33N 40°35' W 073°12'9 9.2
2014-Apr-16 23:32N 40°38' W 073°00'9 9.2
2014-Apr-16 22:33N 40°41' W 072°49'9 9.2
2014-Apr-16 21:34N 40°45' W 072°38'9 9.3
2014-Apr-16 20:34N 40°49' W 072°27'9 9.4
2014-Apr-16 19:33N 40°52' W 072°15'9 9.3
2014-Apr-16 18:34N 40°56' W 072°04'9 9.4
2014-Apr-16 17:33N 40°59' W 071°52'9 8.9
2014-Apr-16 16:34N 41°03' W 071°42'9 9.0
2014-Apr-16 15:34N 41°07' W 071°31'9 8.9
2014-Apr-16 14:33N 41°11' W 071°20'9 8.7
2014-Apr-16 13:34N 41°18' W 071°13'8 8.4
2014-Apr-16 12:34N 41°24' W 071°05'51 2.6
2014-Apr-15 16:27N 42°10' W 070°36'7 8.2
2014-Apr-15 15:33N 42°17' W 070°41'8 8.1
2014-Apr-15 14:33N 42°19' W 070°51'3 0.1
2014-Apr-14 11:31N 42°18' W 070°56'3 3.1
2014-Apr-14 10:34N 42°20' W 070°58'0 0.1
2014-Apr-14 09:34N 42°21' W 070°58'0 0.0
2014-Apr-14 08:34N 42°20' W 070°58'0 0.0
2014-Apr-14 07:34N 42°20' W 070°58'0 0.0
2014-Apr-14 06:34N 42°20' W 070°58'0 0.0
2014-Apr-14 05:34N 42°20' W 070°58'4 0.5
2014-Apr-13 22:30N 42°24' W 071°01'0 0.1
2014-Apr-13 21:23N 42°24' W 071°01'0 0.0
2014-Apr-13 16:32N 42°24' W 071°01'0 0.0
2014-Apr-13 14:33N 42°24' W 071°01'0 0.0
2014-Apr-13 13:33N 42°24' W 071°01'0 0.0
2014-Apr-13 12:33N 42°24' W 071°01'0 0.0
2014-Apr-13 05:19N 42°24' W 071°01'0 0.0
2014-Apr-13 04:24N 42°24' W 071°01'0 0.0
2014-Apr-13 03:20N 42°24' W 071°01'0 0.0
2014-Apr-13 01:28N 42°24' W 071°01'1 1.1
2014-Apr-13 00:33N 42°23' W 071°02'2 1.6
2014-Apr-12 23:33N 42°21' W 071°02'0 0.0
2014-Apr-12 22:33N 42°21' W 071°02'0 0.0
2014-Apr-12 21:33N 42°22' W 071°02'0 0.1
2014-Apr-12 20:33N 42°21' W 071°02'0 0.0
2014-Apr-12 19:33N 42°21' W 071°02'0 0.0
2014-Apr-12 18:33N 42°21' W 071°02'0 0.0
2014-Apr-12 17:33N 42°21' W 071°02'0 0.0
2014-Apr-12 16:33N 42°21' W 071°02'0 0.0
2014-Apr-12 15:33N 42°21' W 071°02'0 0.1
2014-Apr-12 14:33N 42°21' W 071°02'0 0.0
2014-Apr-12 13:34N 42°21' W 071°02'4 4.2
2014-Apr-12 12:33N 42°20' W 070°57'48 4.4
2014-Apr-12 01:34N 41°33' W 070°45'7 7.4
2014-Apr-12 00:34N 41°29' W 070°54'8 7.6
2014-Apr-11 23:34N 41°25' W 071°02'8 7.6
2014-Apr-11 22:34N 41°25' W 071°12'7 7.3
2014-Apr-11 21:33N 41°25' W 071°22'7 6.8
2014-Apr-11 20:34N 41°32' W 071°20'7 7.1
2014-Apr-11 19:34N 41°39' W 071°18'7 7.1
2014-Apr-11 18:33N 41°45' W 071°22'2 0.9
2014-Apr-11 16:31N 41°47' W 071°22'0 0.0
2014-Apr-11 15:33N 41°47' W 071°22'0 0.0
2014-Apr-11 14:34N 41°47' W 071°22'0 0.0
2014-Apr-11 13:32N 41°47' W 071°22'0 0.0
2014-Apr-11 12:33N 41°47' W 071°22'0 0.0
2014-Apr-11 11:33N 41°47' W 071°22'0 0.0
2014-Apr-11 10:33N 41°47' W 071°22'0 0.0
2014-Apr-11 09:33N 41°47' W 071°22'0 0.0
2014-Apr-11 08:33N 41°47' W 071°22'0 0.0
2014-Apr-11 07:33N 41°47' W 071°22'3 2.8
2014-Apr-11 06:33N 41°44' W 071°22'6 6.4
2014-Apr-11 05:33N 41°38' W 071°18'7 7.3
2014-Apr-11 04:33N 41°31' W 071°20'7 6.7
2014-Apr-11 03:34N 41°25' W 071°22'7 7.1
2014-Apr-11 02:34N 41°18' W 071°21'7 6.7
2014-Apr-11 01:34N 41°11' W 071°22'7 7.1
2014-Apr-11 00:34N 41°07' W 071°30'7 7.1
2014-Apr-10 23:33N 41°04' W 071°38'7 6.8
2014-Apr-10 22:33N 41°01' W 071°46'7 7.2
2014-Apr-10 21:33N 40°58' W 071°55'7 7.0
2014-Apr-10 20:33N 40°56' W 072°04'7 6.9
2014-Apr-10 19:33N 40°53' W 072°12'7 6.8
2014-Apr-10 18:34N 40°51' W 072°20'7 6.8
2014-Apr-10 17:33N 40°48' W 072°29'7 6.9
2014-Apr-10 16:33N 40°46' W 072°37'10 7.0
2014-Apr-10 15:05N 40°42' W 072°50'20 7.1
2014-Apr-10 12:12N 40°35' W 073°15'36 6.3
2014-Apr-10 06:33N 40°33' W 074°02'6 6.0
2014-Apr-10 05:33N 40°39' W 074°05'5 5.5
2014-Apr-10 04:33N 40°38' W 074°12'2 1.6
2014-Apr-10 03:14N 40°36' W 074°12'0 0.2
2014-Apr-10 02:33N 40°36' W 074°12'0 0.0
2014-Apr-09 23:33N 40°36' W 074°12'0 0.0
2014-Apr-09 22:33N 40°36' W 074°12'2 2.2
2014-Apr-09 21:29N 40°38' W 074°12'2 1.7
2014-Apr-09 20:30N 40°39' W 074°10'0 0.0
2014-Apr-09 19:30N 40°39' W 074°10'0 0.0
2014-Apr-09 18:30N 40°39' W 074°10'0 0.0
2014-Apr-09 17:31N 40°39' W 074°10'0 0.0
2014-Apr-09 16:33N 40°39' W 074°10'1 0.7
2014-Apr-09 14:33N 40°38' W 074°12'0 0.0
2014-Apr-09 13:33N 40°38' W 074°12'0 0.0
2014-Apr-09 12:33N 40°38' W 074°12'0 0.0
2014-Apr-09 11:33N 40°38' W 074°12'0 0.0
2014-Apr-09 10:33N 40°38' W 074°12'3 2.1
2014-Apr-09 09:17N 40°36' W 074°12'0 0.0
2014-Apr-09 08:32N 40°36' W 074°12'0 0.0
2014-Apr-09 07:33N 40°36' W 074°12'0 0.0
2014-Apr-09 06:30N 40°36' W 074°12'0 0.0
2014-Apr-09 05:33N 40°36' W 074°12'0 0.0
2014-Apr-09 04:30N 40°36' W 074°12'0 0.3
2014-Apr-09 03:32N 40°36' W 074°12'0 0.2
2014-Apr-09 02:30N 40°36' W 074°12'0 0.0
2014-Apr-09 01:33N 40°36' W 074°12'0 0.0
2014-Apr-09 00:33N 40°36' W 074°12'0 0.0
2014-Apr-08 23:31N 40°36' W 074°12'2 1.1
2014-Apr-08 21:30N 40°38' W 074°12'6 6.8
2014-Apr-08 20:33N 40°40' W 074°04'1 1.4
2014-Apr-08 19:33N 40°40' W 074°02'0 0.0
2014-Apr-08 18:33N 40°40' W 074°02'0 0.1
2014-Apr-08 17:33N 40°40' W 074°02'0 0.0
2014-Apr-08 16:33N 40°40' W 074°02'0 0.0
2014-Apr-08 15:33N 40°40' W 074°02'0 0.0
2014-Apr-08 14:33N 40°40' W 074°02'0 0.0
2014-Apr-08 13:33N 40°40' W 074°02'0 0.0
2014-Apr-08 12:33N 40°40' W 074°02'0 0.0
2014-Apr-08 11:33N 40°40' W 074°02'0 0.0
2014-Apr-08 10:33N 40°40' W 074°02'0 0.1
2014-Apr-08 09:33N 40°40' W 074°02'0 0.1
2014-Apr-08 08:33N 40°40' W 074°02'0 0.1
2014-Apr-08 07:33N 40°40' W 074°02'0 0.1
2014-Apr-08 06:33N 40°40' W 074°02'0 0.0
2014-Apr-08 05:33N 40°40' W 074°02'0 0.2
2014-Apr-08 04:33N 40°40' W 074°02'0 0.1
2014-Apr-08 03:33N 40°40' W 074°02'0 0.0
2014-Apr-08 02:33N 40°40' W 074°02'0 0.0
2014-Apr-08 01:33N 40°40' W 074°02'0 0.0
2014-Apr-08 00:33N 40°40' W 074°02'0 0.0
2014-Apr-07 23:34N 40°40' W 074°02'0 0.0
2014-Apr-07 22:33N 40°40' W 074°02'0 0.1
2014-Apr-07 21:33N 40°40' W 074°03'0 0.0
2014-Apr-07 20:33N 40°40' W 074°03'5 4.7
2014-Apr-07 19:33N 40°39' W 074°08'1 0.6
2014-Apr-07 17:33N 40°39' W 074°10'0 0.0
2014-Apr-07 16:33N 40°39' W 074°10'4 3.7
2014-Apr-07 15:33N 40°39' W 074°05'4 3.7
2014-Apr-07 14:33N 40°39' W 074°10'0 0.0
2014-Apr-07 13:25N 40°39' W 074°10'0 0.0
2014-Apr-07 12:32N 40°39' W 074°10'4 4.1
2014-Apr-07 11:33N 40°39' W 074°05'2 1.9
2014-Apr-07 10:33N 40°40' W 074°02'0 0.0
2014-Apr-07 09:33N 40°40' W 074°02'0 0.1
2014-Apr-07 08:33N 40°40' W 074°02'0 0.1
2014-Apr-07 07:33N 40°40' W 074°02'0 0.1
2014-Apr-07 06:34N 40°40' W 074°02'0 0.1
2014-Apr-07 05:33N 40°40' W 074°02'0 0.0
2014-Apr-07 04:33N 40°40' W 074°02'0 0.0
2014-Apr-07 03:33N 40°40' W 074°02'0 0.0
2014-Apr-07 02:33N 40°40' W 074°02'0 0.0
2014-Apr-07 01:33N 40°40' W 074°02'0 0.0
2014-Apr-07 00:34N 40°40' W 074°02'  

Dump ship's entire track history

sailing weather and tide predictions

Tasman Sea — WDB5559 — position and weather